Notice: Undefined index: language in /storage/ssd5/933/2892933/public_html/vam/index.php on line 25
JetGo Aerolínea Virtual

www.000webhost.com
 METAR AND TAF INFORMATION
METAR FOR SKPS
ADDS - METARS form results

(1418 UTC 19 August 2019)
Data provider http://aviationweather.gov/metar/data/
 
METAR text: SKPS 191400Z 32005KT 9999 SCT027 22/09 A3019
Conditions at: SKPS (PASTO/ANTONIO NA, CO) observed 1400 UTC 19 August 2019
Temperature: 22.0°C (72°F)
Dewpoint: 9.0°C (48°F) [RH = 43%]
Pressure (altimeter): 30.19 inches Hg (1022.4 mb)
Winds: from the NW (320 degrees) at 6 MPH (5 knots; 2.6 m/s)
Visibility: 6 or more miles (10+ km)
Ceiling: at least 12,000 feet AGL
Clouds: scattered clouds at 2700 feet AGL
Weather: no significant weather observed at this time

 AIRPORT MAP

 RUNWAY INFORMATION
Runway 02 Runway length 7585 ft Runway width 130 ft
Runway elevation 5840 ft Runway displaced threshold 200 ft Runway heading 16
Runway 20 Runway length 7585 ft Runway width 130 ft
Runway elevation 5840 ft Runway displaced threshold 170 ft Runway heading 196

 AIRPORT FREQUENCIES
Type RDO Name PASTO RDO Frequency 348.8 MHZ
Type TWR Name TWR Frequency 118 MHZ

 AIRPORT NEAR NAVIGATION AIDS
Type VOR-DME Name Pasto Frequency 113400 KHZ
Type NDB Name Pasto Frequency 264 KHZ



Powered by VAM for JetGo Virtual Airlines